Time;durP1;ratioP1;P1;durP2;ratioP2;P2;SDS_P1;SDS_P2;PMS_P1;PMS_P2;Temp;Humidity;BMP_temperature;BMP_pressure;BME280_temperature;BME280_humidity;BME280_pressure;Samples;Min_cycle;Max_cycle;Signal;HPM_P1;HPM_P2
2023/08/12 00:00:15;;;;;;;4.13;3.73;;;;;;;;;;6162392;28;20244;-66
2023/08/12 00:03:16;;;;;;;3.10;2.90;;;;;;;;;;6166658;28;20199;-66
2023/08/12 00:06:17;;;;;;;3.00;2.80;;;;;;;;;;6158230;28;20243;-65
2023/08/12 00:09:19;;;;;;;3.20;2.90;;;;;;;;;;6172814;28;20195;-65
2023/08/12 00:12:20;;;;;;;3.40;3.10;;;;;;;;;;6162546;28;20248;-65
2023/08/12 00:15:21;;;;;;;8.20;3.30;;;;;;;;;;6157660;28;20200;-66
2023/08/12 00:18:22;;;;;;;3.20;2.90;;;;;;;;;;6173467;28;20283;-66
2023/08/12 00:21:23;;;;;;;4.70;3.43;;;;;;;;;;6174646;28;20217;-66
2023/08/12 00:24:24;;;;;;;3.77;3.37;;;;;;;;;;6176414;28;20212;-66
2023/08/12 00:27:25;;;;;;;3.63;3.30;;;;;;;;;;6159142;28;20192;-66
2023/08/12 00:30:26;;;;;;;6.50;3.27;;;;;;;;;;6159492;28;20227;-65
2023/08/12 00:33:28;;;;;;;3.63;3.20;;;;;;;;;;6167283;28;20193;-65
2023/08/12 00:36:29;;;;;;;5.77;3.53;;;;;;;;;;6181650;28;20198;-65
2023/08/12 00:39:30;;;;;;;3.77;3.23;;;;;;;;;;6165627;28;20227;-66
2023/08/12 00:42:31;;;;;;;4.90;3.73;;;;;;;;;;6171943;28;20193;-66
2023/08/12 00:45:32;;;;;;;3.50;3.20;;;;;;;;;;6160402;28;20195;-66
2023/08/12 00:48:33;;;;;;;3.67;3.33;;;;;;;;;;6160575;28;20201;-65
2023/08/12 00:51:35;;;;;;;4.50;3.20;;;;;;;;;;6159974;28;20200;-66
2023/08/12 00:54:36;;;;;;;4.10;3.50;;;;;;;;;;6173085;28;20208;-66
2023/08/12 00:57:37;;;;;;;4.03;3.63;;;;;;;;;;6174527;28;20201;-66
2023/08/12 01:00:38;;;;;;;4.00;3.70;;;;;;;;;;6155898;28;20230;-66
2023/08/12 01:03:40;;;;;;;4.40;3.43;;;;;;;;;;6159641;28;20200;-65
2023/08/12 01:06:41;;;;;;;3.90;3.30;;;;;;;;;;6188663;28;20244;-65
2023/08/12 01:09:42;;;;;;;4.00;3.50;;;;;;;;;;6167551;28;20197;-65
2023/08/12 01:12:46;;;;;;;3.77;3.43;;;;;;;;;;6170192;28;20241;-65
2023/08/12 01:15:50;;;;;;;4.13;3.63;;;;;;;;;;6174781;28;20193;-65
2023/08/12 01:18:52;;;;;;;5.63;4.00;;;;;;;;;;6158100;28;20268;-65
2023/08/12 01:21:54;;;;;;;4.03;3.37;;;;;;;;;;6190908;28;20220;-65
2023/08/12 01:24:55;;;;;;;6.43;3.80;;;;;;;;;;6174830;28;20215;-65
2023/08/12 01:27:56;;;;;;;3.93;3.37;;;;;;;;;;6176950;28;20194;-65
2023/08/12 01:31:12;;;;;;;4.13;3.73;;;;;;;;;;6164904;28;20197;-66
2023/08/12 01:34:43;;;;;;;3.83;3.50;;;;;;;;;;6174567;28;20202;-66
2023/08/12 01:37:44;;;;;;;3.73;3.33;;;;;;;;;;6171935;28;20213;-66
2023/08/12 01:40:46;;;;;;;5.87;3.80;;;;;;;;;;6174064;28;20217;-66
2023/08/12 01:43:47;;;;;;;4.73;4.27;;;;;;;;;;6167660;28;20198;-66
2023/08/12 01:46:50;;;;;;;3.77;3.37;;;;;;;;;;6176915;28;20260;-66
2023/08/12 01:49:51;;;;;;;4.30;3.53;;;;;;;;;;6181363;28;20193;-66
2023/08/12 01:52:52;;;;;;;5.43;3.57;;;;;;;;;;6162985;28;20235;-66
2023/08/12 01:55:53;;;;;;;5.33;3.47;;;;;;;;;;6176098;28;20196;-66
2023/08/12 01:58:54;;;;;;;4.20;3.80;;;;;;;;;;6168565;28;20269;-66
2023/08/12 02:01:55;;;;;;;5.97;3.27;;;;;;;;;;6177594;28;20240;-66
2023/08/12 02:04:56;;;;;;;6.53;3.70;;;;;;;;;;6162578;28;20252;-66
2023/08/12 02:07:57;;;;;;;4.53;3.47;;;;;;;;;;6167472;28;20201;-66
2023/08/12 02:10:58;;;;;;;5.17;3.27;;;;;;;;;;6162063;28;20201;-66
2023/08/12 02:13:59;;;;;;;4.30;3.87;;;;;;;;;;6162594;28;20208;-65
2023/08/12 02:17:00;;;;;;;5.27;3.23;;;;;;;;;;6162331;28;20200;-65
2023/08/12 02:20:01;;;;;;;4.80;4.00;;;;;;;;;;6167323;28;20284;-65
2023/08/12 02:23:02;;;;;;;4.83;3.50;;;;;;;;;;6161370;28;20281;-66
2023/08/12 02:26:04;;;;;;;6.60;3.60;;;;;;;;;;6161966;28;20219;-66
2023/08/12 02:29:05;;;;;;;3.57;3.27;;;;;;;;;;6161765;28;20257;-66
2023/08/12 02:32:06;;;;;;;4.57;3.77;;;;;;;;;;6178376;28;20189;-66
2023/08/12 02:35:07;;;;;;;3.83;3.53;;;;;;;;;;6163090;28;20223;-66
2023/08/12 02:38:08;;;;;;;4.77;4.10;;;;;;;;;;6178491;28;20205;-66
2023/08/12 02:41:09;;;;;;;4.60;4.20;;;;;;;;;;6159080;28;20223;-66
2023/08/12 02:44:10;;;;;;;4.97;4.57;;;;;;;;;;6169742;28;20186;-66
2023/08/12 02:47:11;;;;;;;5.70;4.50;;;;;;;;;;6178306;28;20211;-66
2023/08/12 02:50:12;;;;;;;5.67;4.17;;;;;;;;;;6168397;28;20192;-66
2023/08/12 02:53:14;;;;;;;4.90;4.30;;;;;;;;;;6160403;28;20220;-65
2023/08/12 02:56:15;;;;;;;6.07;4.33;;;;;;;;;;6161651;28;20264;-65
2023/08/12 02:59:24;;;;;;;5.43;4.10;;;;;;;;;;6160265;28;20200;-65
2023/08/12 03:02:25;;;;;;;7.60;3.90;;;;;;;;;;6176307;28;20193;-66
2023/08/12 03:05:26;;;;;;;4.63;4.07;;;;;;;;;;6154047;28;20252;-66
2023/08/12 03:08:27;;;;;;;4.20;3.60;;;;;;;;;;6169314;28;20203;-66
2023/08/12 03:11:28;;;;;;;5.87;3.83;;;;;;;;;;6159314;28;20223;-65
2023/08/12 03:14:30;;;;;;;9.47;4.23;;;;;;;;;;6154414;28;20295;-65
2023/08/12 03:17:31;;;;;;;4.07;3.40;;;;;;;;;;6160133;28;20286;-66
2023/08/12 03:20:32;;;;;;;4.53;3.97;;;;;;;;;;6163371;28;20221;-66
2023/08/12 03:23:33;;;;;;;4.67;3.60;;;;;;;;;;6160732;28;20283;-66
2023/08/12 03:26:34;;;;;;;5.13;3.87;;;;;;;;;;6174129;28;20204;-66
2023/08/12 03:29:35;;;;;;;4.03;3.63;;;;;;;;;;6157804;28;20211;-67
2023/08/12 03:32:36;;;;;;;4.40;4.00;;;;;;;;;;6169532;28;20227;-67
2023/08/12 03:35:37;;;;;;;4.93;3.73;;;;;;;;;;6161012;28;20197;-67
2023/08/12 03:38:38;;;;;;;4.23;3.87;;;;;;;;;;6159901;28;20223;-66
2023/08/12 03:41:39;;;;;;;6.03;4.00;;;;;;;;;;6161125;28;20300;-66
2023/08/12 03:44:41;;;;;;;4.43;4.03;;;;;;;;;;6160674;28;20290;-66
2023/08/12 03:47:42;;;;;;;5.60;3.43;;;;;;;;;;6160808;28;20223;-66
2023/08/12 03:50:45;;;;;;;3.93;3.63;;;;;;;;;;6176440;28;20303;-66
2023/08/12 03:53:46;;;;;;;5.60;3.97;;;;;;;;;;6164077;28;20256;-66
2023/08/12 03:56:47;;;;;;;4.47;4.07;;;;;;;;;;6168921;28;20202;-66
2023/08/12 03:59:48;;;;;;;4.80;4.37;;;;;;;;;;6160344;28;20331;-66
2023/08/12 04:02:49;;;;;;;4.60;4.20;;;;;;;;;;6163202;28;20196;-66
2023/08/12 04:05:52;;;;;;;4.77;4.20;;;;;;;;;;6168737;28;20307;-65
2023/08/12 04:08:52;;;;;;;5.67;4.23;;;;;;;;;;6168875;28;20200;-66
2023/08/12 04:11:54;;;;;;;5.17;4.23;;;;;;;;;;6159474;28;20270;-66
2023/08/12 04:14:55;;;;;;;3.83;3.53;;;;;;;;;;6159786;28;20204;-65
2023/08/12 04:17:56;;;;;;;4.80;4.27;;;;;;;;;;6159755;28;20235;-66
2023/08/12 04:20:57;;;;;;;4.33;3.77;;;;;;;;;;6159802;28;20217;-65
2023/08/12 04:23:58;;;;;;;4.80;4.23;;;;;;;;;;6161178;28;20195;-66
2023/08/12 04:26:59;;;;;;;6.00;4.40;;;;;;;;;;6159242;28;20282;-65
2023/08/12 04:30:00;;;;;;;5.00;4.07;;;;;;;;;;6158788;28;20207;-65
2023/08/12 04:33:01;;;;;;;4.77;4.27;;;;;;;;;;6158402;28;20201;-65
2023/08/12 04:36:02;;;;;;;8.40;4.37;;;;;;;;;;6161590;28;20192;-65
2023/08/12 04:39:04;;;;;;;4.87;4.20;;;;;;;;;;6173329;28;20199;-65
2023/08/12 04:42:05;;;;;;;4.57;4.17;;;;;;;;;;6170221;28;20224;-66
2023/08/12 04:45:06;;;;;;;4.80;4.30;;;;;;;;;;6155938;28;20200;-66
2023/08/12 04:48:08;;;;;;;7.40;4.40;;;;;;;;;;6171849;28;20264;-66
2023/08/12 04:51:10;;;;;;;4.33;3.93;;;;;;;;;;6159298;28;20197;-64
2023/08/12 04:54:11;;;;;;;4.40;4.00;;;;;;;;;;6153801;28;20204;-62
2023/08/12 04:57:12;;;;;;;5.73;3.60;;;;;;;;;;6173848;28;20196;-63
2023/08/12 05:00:13;;;;;;;6.80;3.83;;;;;;;;;;6157909;28;20219;-65
2023/08/12 05:03:14;;;;;;;5.10;4.37;;;;;;;;;;6158837;28;20196;-65
2023/08/12 05:06:15;;;;;;;5.67;3.97;;;;;;;;;;6161366;28;20244;-64
2023/08/12 05:09:16;;;;;;;4.40;4.00;;;;;;;;;;6156447;28;20203;-66
2023/08/12 05:12:17;;;;;;;4.40;3.80;;;;;;;;;;6174678;28;20211;-64
2023/08/12 05:15:18;;;;;;;6.13;4.07;;;;;;;;;;6171301;28;20231;-63
2023/08/12 05:18:19;;;;;;;4.83;4.33;;;;;;;;;;6173862;28;20255;-66
2023/08/12 05:21:21;;;;;;;5.10;4.30;;;;;;;;;;6163233;28;20223;-66
2023/08/12 05:24:22;;;;;;;4.73;4.33;;;;;;;;;;6162966;28;20192;-66
2023/08/12 05:27:23;;;;;;;4.93;4.43;;;;;;;;;;6159816;28;20277;-66
2023/08/12 05:30:24;;;;;;;4.60;4.20;;;;;;;;;;6163263;28;20220;-66
2023/08/12 05:33:25;;;;;;;5.37;4.17;;;;;;;;;;6161373;28;20206;-65
2023/08/12 05:36:26;;;;;;;5.07;4.27;;;;;;;;;;6178855;28;20192;-65
2023/08/12 05:39:27;;;;;;;5.07;4.67;;;;;;;;;;6165755;28;20207;-65
2023/08/12 05:42:28;;;;;;;4.80;4.27;;;;;;;;;;6179089;28;20196;-64
2023/08/12 05:45:29;;;;;;;4.50;4.10;;;;;;;;;;6178254;28;20196;-65
2023/08/12 05:48:30;;;;;;;5.20;4.67;;;;;;;;;;6162473;28;20193;-65
2023/08/12 05:51:31;;;;;;;6.20;4.33;;;;;;;;;;6179346;28;20286;-65
2023/08/12 05:54:32;;;;;;;5.00;3.80;;;;;;;;;;6179403;28;20197;-65
2023/08/12 05:57:33;;;;;;;5.03;4.60;;;;;;;;;;6163959;28;20193;-65
2023/08/12 06:00:34;;;;;;;5.87;4.67;;;;;;;;;;6163262;28;20219;-65
2023/08/12 06:03:35;;;;;;;4.20;3.80;;;;;;;;;;6163325;28;20224;-65
2023/08/12 06:06:36;;;;;;;5.10;4.57;;;;;;;;;;6162816;28;20237;-65
2023/08/12 06:09:37;;;;;;;5.10;4.13;;;;;;;;;;6178686;28;20189;-65
2023/08/12 06:12:38;;;;;;;6.20;4.20;;;;;;;;;;6165227;28;20197;-65
2023/08/12 06:15:39;;;;;;;4.93;4.43;;;;;;;;;;6162774;28;20271;-65
2023/08/12 06:18:40;;;;;;;5.43;4.80;;;;;;;;;;6178485;28;20224;-65
2023/08/12 06:21:41;;;;;;;6.43;4.60;;;;;;;;;;6178678;28;20284;-65
2023/08/12 06:24:42;;;;;;;5.00;4.27;;;;;;;;;;6178649;28;20265;-65
2023/08/12 06:27:44;;;;;;;5.93;4.57;;;;;;;;;;6178781;28;20214;-65
2023/08/12 06:30:45;;;;;;;5.27;4.77;;;;;;;;;;6170276;28;20216;-66
2023/08/12 06:33:47;;;;;;;4.77;4.30;;;;;;;;;;6176052;28;20193;-66
2023/08/12 06:36:48;;;;;;;4.37;3.63;;;;;;;;;;6177420;28;20192;-66
2023/08/12 06:39:49;;;;;;;5.00;4.50;;;;;;;;;;6161095;28;20288;-66
2023/08/12 06:42:50;;;;;;;5.83;4.77;;;;;;;;;;6155133;28;20193;-66
2023/08/12 06:45:51;;;;;;;5.37;4.83;;;;;;;;;;6166891;28;20334;-66
2023/08/12 06:48:52;;;;;;;4.67;4.27;;;;;;;;;;6162489;28;20279;-66
2023/08/12 06:51:53;;;;;;;6.70;4.33;;;;;;;;;;6181265;28;20211;-67
2023/08/12 06:54:54;;;;;;;7.17;4.07;;;;;;;;;;6160976;28;20196;-66
2023/08/12 06:57:55;;;;;;;5.13;4.63;;;;;;;;;;6161769;28;20391;-66
2023/08/12 07:00:56;;;;;;;5.17;4.60;;;;;;;;;;6169474;28;20239;-65
2023/08/12 07:03:57;;;;;;;5.57;4.57;;;;;;;;;;6174172;28;20184;-66
2023/08/12 07:06:58;;;;;;;5.40;4.53;;;;;;;;;;6177694;28;20192;-66
2023/08/12 07:09:59;;;;;;;5.00;4.10;;;;;;;;;;6160725;28;20211;-65
2023/08/12 07:13:00;;;;;;;5.90;4.43;;;;;;;;;;6169357;28;20200;-66
2023/08/12 07:16:01;;;;;;;7.33;4.50;;;;;;;;;;6161174;28;20212;-66
2023/08/12 07:19:02;;;;;;;5.80;4.60;;;;;;;;;;6173783;28;20193;-66
2023/08/12 07:22:03;;;;;;;5.30;4.60;;;;;;;;;;6164583;28;20252;-65
2023/08/12 07:25:05;;;;;;;6.73;4.07;;;;;;;;;;6160462;28;20195;-65
2023/08/12 07:28:06;;;;;;;5.73;4.60;;;;;;;;;;6175739;28;20196;-65
2023/08/12 07:31:08;;;;;;;5.03;4.47;;;;;;;;;;6177634;28;20185;-65
2023/08/12 07:34:12;;;;;;;5.07;4.57;;;;;;;;;;6173106;28;20189;-65
2023/08/12 07:37:13;;;;;;;7.07;4.20;;;;;;;;;;6176108;28;20192;-64
2023/08/12 07:40:14;;;;;;;6.67;4.30;;;;;;;;;;6164577;28;20256;-64
2023/08/12 07:43:16;;;;;;;4.37;3.87;;;;;;;;;;6176485;28;20203;-64
2023/08/12 07:46:17;;;;;;;4.27;3.87;;;;;;;;;;6185934;28;20280;-64
2023/08/12 07:49:18;;;;;;;5.53;4.00;;;;;;;;;;6176158;28;20192;-64
2023/08/12 07:52:19;;;;;;;4.00;3.70;;;;;;;;;;6160134;28;20206;-64
2023/08/12 07:55:20;;;;;;;5.40;3.77;;;;;;;;;;6160007;28;20200;-64
2023/08/12 07:58:21;;;;;;;4.50;4.07;;;;;;;;;;6174195;28;20199;-64
2023/08/12 08:01:22;;;;;;;4.87;4.37;;;;;;;;;;6159922;28;20299;-64
2023/08/12 08:04:23;;;;;;;5.30;4.43;;;;;;;;;;6161433;28;20283;-65
2023/08/12 08:07:24;;;;;;;3.47;3.17;;;;;;;;;;6159913;28;20189;-65
2023/08/12 08:10:25;;;;;;;3.63;3.33;;;;;;;;;;6167687;28;20235;-65
2023/08/12 08:13:26;;;;;;;5.47;3.50;;;;;;;;;;6143062;28;20225;-65
2023/08/12 08:16:27;;;;;;;3.60;3.30;;;;;;;;;;6170202;28;20190;-65
2023/08/12 08:19:28;;;;;;;3.93;3.53;;;;;;;;;;6156140;28;20192;-65
2023/08/12 08:22:30;;;;;;;3.90;3.50;;;;;;;;;;6165885;28;20196;-65
2023/08/12 08:25:31;;;;;;;3.70;3.40;;;;;;;;;;6173316;28;20191;-65
2023/08/12 08:28:32;;;;;;;3.50;3.13;;;;;;;;;;6154408;28;20199;-65
2023/08/12 08:31:33;;;;;;;3.00;2.70;;;;;;;;;;6159842;28;20208;-65
2023/08/12 08:34:34;;;;;;;3.30;3.00;;;;;;;;;;6160886;28;20272;-65
2023/08/12 08:37:35;;;;;;;4.07;3.47;;;;;;;;;;6162678;28;20273;-65
2023/08/12 08:40:36;;;;;;;4.97;3.70;;;;;;;;;;6172721;28;20228;-65
2023/08/12 08:43:38;;;;;;;4.97;3.53;;;;;;;;;;6154254;28;20185;-65
2023/08/12 08:46:39;;;;;;;5.20;3.37;;;;;;;;;;6174596;28;20212;-64
2023/08/12 08:49:40;;;;;;;3.60;3.30;;;;;;;;;;6158815;28;20252;-65
2023/08/12 08:52:44;;;;;;;4.00;3.30;;;;;;;;;;6167085;28;20191;-65
2023/08/12 08:55:46;;;;;;;3.37;3.07;;;;;;;;;;6163483;28;20185;-65
2023/08/12 08:58:47;;;;;;;3.40;3.20;;;;;;;;;;6175604;28;20274;-65
2023/08/12 09:01:51;;;;;;;3.50;3.20;;;;;;;;;;6158929;28;20319;-65
2023/08/12 09:04:52;;;;;;;3.33;3.00;;;;;;;;;;6158414;28;20303;-65
2023/08/12 09:07:54;;;;;;;3.93;3.00;;;;;;;;;;6175097;28;20187;-65
2023/08/12 09:10:55;;;;;;;4.63;3.67;;;;;;;;;;6187518;28;20204;-65
2023/08/12 09:13:56;;;;;;;3.67;3.30;;;;;;;;;;6158665;28;20246;-65
2023/08/12 09:16:58;;;;;;;4.07;3.40;;;;;;;;;;6170438;28;20200;-65
2023/08/12 09:19:59;;;;;;;3.53;2.93;;;;;;;;;;6159808;28;20296;-65
2023/08/12 09:23:00;;;;;;;4.20;3.10;;;;;;;;;;6174214;28;20203;-65
2023/08/12 09:26:02;;;;;;;3.63;3.03;;;;;;;;;;6174520;28;20188;-65
2023/08/12 09:29:03;;;;;;;3.40;3.10;;;;;;;;;;6158693;28;20200;-65
2023/08/12 09:32:11;;;;;;;3.23;2.93;;;;;;;;;;6158615;28;20201;-65
2023/08/12 09:35:18;;;;;;;4.23;2.87;;;;;;;;;;6180484;28;20192;-65
2023/08/12 09:38:19;;;;;;;3.10;2.87;;;;;;;;;;6175166;28;20196;-65
2023/08/12 09:41:23;;;;;;;4.87;3.63;;;;;;;;;;6157835;28;20223;-65
2023/08/12 09:44:24;;;;;;;3.47;3.17;;;;;;;;;;6174649;28;20200;-65
2023/08/12 09:47:28;;;;;;;3.77;3.33;;;;;;;;;;6161446;28;20196;-65
2023/08/12 09:50:29;;;;;;;4.13;3.23;;;;;;;;;;6158390;28;20254;-65
2023/08/12 09:53:30;;;;;;;4.20;2.90;;;;;;;;;;6174736;28;20200;-65
2023/08/12 09:56:34;;;;;;;3.87;3.57;;;;;;;;;;6159927;28;20192;-65
2023/08/12 09:59:36;;;;;;;3.80;3.43;;;;;;;;;;6174463;28;20219;-65
2023/08/12 10:02:37;;;;;;;3.53;3.23;;;;;;;;;;6172181;28;20264;-65
2023/08/12 10:05:38;;;;;;;3.47;3.17;;;;;;;;;;6158069;28;20243;-65
2023/08/12 10:08:39;;;;;;;5.50;3.40;;;;;;;;;;6165267;28;20196;-65
2023/08/12 10:11:42;;;;;;;4.07;3.60;;;;;;;;;;6179173;28;20222;-65
2023/08/12 10:14:43;;;;;;;6.93;3.33;;;;;;;;;;6177970;28;20247;-65
2023/08/12 10:17:44;;;;;;;4.40;3.37;;;;;;;;;;6156796;28;20200;-65
2023/08/12 10:20:45;;;;;;;3.70;3.30;;;;;;;;;;6171355;28;20211;-65
2023/08/12 10:23:47;;;;;;;4.83;3.20;;;;;;;;;;6178473;28;20205;-65
2023/08/12 10:26:49;;;;;;;3.63;3.33;;;;;;;;;;6182572;28;20195;-65
2023/08/12 10:29:50;;;;;;;3.60;3.20;;;;;;;;;;6154841;28;20196;-65
2023/08/12 10:32:51;;;;;;;3.30;3.03;;;;;;;;;;6178477;28;20204;-65
2023/08/12 10:35:56;;;;;;;4.60;3.30;;;;;;;;;;6177241;28;20185;-65
2023/08/12 10:38:57;;;;;;;3.90;3.50;;;;;;;;;;6170183;28;20193;-65
2023/08/12 10:41:58;;;;;;;3.50;3.20;;;;;;;;;;6177769;28;20338;-65
2023/08/12 10:44:59;;;;;;;3.50;3.30;;;;;;;;;;6188531;28;20193;-65
2023/08/12 10:48:15;;;;;;;3.77;3.37;;;;;;;;;;6171672;28;20192;-65
2023/08/12 10:51:16;;;;;;;3.80;3.50;;;;;;;;;;6183649;28;20291;-65
2023/08/12 10:54:17;;;;;;;3.83;3.47;;;;;;;;;;6161663;28;20247;-65
2023/08/12 10:57:18;;;;;;;3.90;3.60;;;;;;;;;;6177703;28;20196;-65
2023/08/12 11:00:26;;;;;;;3.60;3.30;;;;;;;;;;6177540;28;20243;-65
2023/08/12 11:03:33;;;;;;;3.60;3.40;;;;;;;;;;6181474;28;20197;-65
2023/08/12 11:06:43;;;;;;;2.93;2.73;;;;;;;;;;6164380;28;20248;-65
2023/08/12 11:09:44;;;;;;;2.60;2.40;;;;;;;;;;6170789;28;20628;-65
2023/08/12 11:12:54;;;;;;;5.93;3.23;;;;;;;;;;6160582;28;20195;-65
2023/08/12 11:16:06;;;;;;;3.43;3.13;;;;;;;;;;6177305;28;20197;-65
2023/08/12 11:19:07;;;;;;;3.20;2.90;;;;;;;;;;6173346;28;20198;-65
2023/08/12 11:22:09;;;;;;;3.70;3.40;;;;;;;;;;6161208;28;20216;-65
2023/08/12 11:25:12;;;;;;;3.53;3.23;;;;;;;;;;6174776;28;20200;-65
2023/08/12 11:28:13;;;;;;;3.17;2.97;;;;;;;;;;6176292;28;20192;-65
2023/08/12 11:31:14;;;;;;;2.80;2.60;;;;;;;;;;6178533;28;20276;-65
2023/08/12 11:34:16;;;;;;;3.20;3.00;;;;;;;;;;6143206;28;20216;-65
2023/08/12 11:37:17;;;;;;;3.43;3.17;;;;;;;;;;6170687;28;20200;-65
2023/08/12 11:40:18;;;;;;;3.40;3.10;;;;;;;;;;6167183;28;20223;-65
2023/08/12 11:43:21;;;;;;;3.37;3.07;;;;;;;;;;6160774;28;20196;-65
2023/08/12 11:46:22;;;;;;;3.33;2.77;;;;;;;;;;6182458;28;20193;-65
2023/08/12 11:49:23;;;;;;;3.97;3.33;;;;;;;;;;6175836;28;20279;-65
2023/08/12 11:52:25;;;;;;;3.27;3.07;;;;;;;;;;6165568;28;20330;-65
2023/08/12 11:55:26;;;;;;;3.87;3.57;;;;;;;;;;6169365;28;20192;-65
2023/08/12 11:58:35;;;;;;;2.70;2.50;;;;;;;;;;6143913;28;20207;-65
2023/08/12 12:01:36;;;;;;;2.87;2.67;;;;;;;;;;6177237;28;20252;-65
2023/08/12 12:04:37;;;;;;;3.10;2.80;;;;;;;;;;6166303;28;20255;-65
2023/08/12 12:07:38;;;;;;;4.27;2.70;;;26.90;57.60;;;;;;6175807;28;20192;-65
2023/08/12 12:10:39;;;;;;;2.50;2.30;;;;;;;;;;6180803;28;20193;-65
2023/08/12 12:13:40;;;;;;;2.73;2.00;;;;;;;;;;6167224;28;20211;-65
2023/08/12 12:16:43;;;;;;;2.50;2.30;;;;;;;;;;6159954;28;20192;-65
2023/08/12 12:19:44;;;;;;;2.73;2.40;;;;;;;;;;6174124;28;20200;-65
2023/08/12 12:22:45;;;;;;;2.40;2.20;;;;;;;;;;6154509;28;20197;-65
2023/08/12 12:25:46;;;;;;;2.07;1.97;;;;;;;;;;6169398;28;20184;-65
2023/08/12 12:28:47;;;;;;;3.77;2.07;;;34.10;40.70;;;;;;6160644;28;20196;-65
2023/08/12 12:31:48;;;;;;;2.23;2.03;;;34.10;40.60;;;;;;6141839;28;20211;-64
2023/08/12 12:34:49;;;;;;;2.63;2.37;;;34.50;40.90;;;;;;6173973;28;20320;-65
2023/08/12 12:37:49;;;;;;;2.70;2.50;;;35.20;40.00;;;;;;6162119;28;20193;-65
2023/08/12 12:40:50;;;;;;;3.30;2.33;;;35.50;40.70;;;;;;6156722;28;20224;-65
2023/08/12 12:43:51;;;;;;;2.55;2.35;;;;;;;;;;6135392;29;20204;-64
2023/08/12 12:46:52;;;;;;;2.35;2.15;;;;;;;;;;6170915;28;20235;-64
2023/08/12 12:49:53;;;;;;;2.17;2.08;;;;;;;;;;6154257;28;20193;-64
2023/08/12 12:52:54;;;;;;;4.00;2.25;;;38.00;38.00;;;;;;6159363;28;20196;-64
2023/08/12 12:55:57;;;;;;;2.03;1.92;;;;;;;;;;6169634;28;20195;-64
2023/08/12 12:58:58;;;;;;;2.30;2.10;;;;;;;;;;6175002;28;20192;-64
2023/08/12 13:01:59;;;;;;;2.38;2.15;;;;;;;;;;6159486;28;20255;-64
2023/08/12 13:05:00;;;;;;;2.50;2.20;;;;;;;;;;6173132;28;20275;-64
2023/08/12 13:08:01;;;;;;;1.95;1.85;;;;;;;;;;6164232;28;20191;-64
2023/08/12 13:11:02;;;;;;;2.22;2.08;;;;;;;;;;6164932;28;20191;-64
2023/08/12 13:14:03;;;;;;;2.05;1.95;;;;;;;;;;6164889;28;20219;-64
2023/08/12 13:17:04;;;;;;;2.30;2.10;;;;;;;;;;6174958;28;20212;-64
2023/08/12 13:20:06;;;;;;;2.37;2.17;;;;;;;;;;6166909;28;20209;-64
2023/08/12 13:23:07;;;;;;;2.00;1.90;;;;;;;;;;6174004;28;20196;-64
2023/08/12 13:26:08;;;;;;;3.30;2.20;;;;;;;;;;6158136;28;20200;-64
2023/08/12 13:29:09;;;;;;;2.30;1.90;;;;;;;;;;6152724;28;20185;-65
2023/08/12 13:32:11;;;;;;;2.40;2.20;;;;;;;;;;6172084;28;20196;-64
2023/08/12 13:35:12;;;;;;;2.30;2.10;;;;;;;;;;6182508;28;20188;-64
2023/08/12 13:38:13;;;;;;;2.50;2.30;;;;;;;;;;6168822;28;20197;-65
2023/08/12 13:41:15;;;;;;;2.43;2.20;;;;;;;;;;6179363;28;20255;-64
2023/08/12 13:44:16;;;;;;;3.37;2.67;;;;;;;;;;6163105;28;20188;-64
2023/08/12 13:47:17;;;;;;;2.63;2.20;;;;;;;;;;6166126;28;20211;-65
2023/08/12 13:50:18;;;;;;;2.57;2.37;;;;;;;;;;6163390;28;20210;-64
2023/08/12 13:53:19;;;;;;;2.50;2.30;;;;;;;;;;6162583;28;20192;-64
2023/08/12 13:56:20;;;;;;;2.50;2.30;;;;;;;;;;6176091;28;20196;-65
2023/08/12 13:59:21;;;;;;;3.30;3.00;;;;;;;;;;6161903;28;20201;-65
2023/08/12 14:02:23;;;;;;;2.57;2.37;;;;;;;;;;6162828;28;20224;-64
2023/08/12 14:05:24;;;;;;;2.70;2.50;;;;;;;;;;6151925;28;20244;-64
2023/08/12 14:08:25;;;;;;;2.77;2.57;;;;;;;;;;6179131;28;20198;-65
2023/08/12 14:11:26;;;;;;;2.53;2.33;;;;;;;;;;6167873;28;20196;-64
2023/08/12 14:14:27;;;;;;;2.97;2.73;;;;;;;;;;6172269;28;20200;-64
2023/08/12 14:17:28;;;;;;;2.40;2.20;;;;;;;;;;6187557;28;20204;-64
2023/08/12 14:20:29;;;;;;;2.17;1.97;;;;;;;;;;6177942;28;20246;-64
2023/08/12 14:23:30;;;;;;;2.17;1.93;;;;;;;;;;6193717;28;20192;-64
2023/08/12 14:26:31;;;;;;;3.37;2.73;;;;;;;;;;6170704;28;20275;-64
2023/08/12 14:29:32;;;;;;;2.47;2.27;;;;;;;;;;6173736;28;20188;-64
2023/08/12 14:32:33;;;;;;;2.10;2.00;;;;;;;;;;6161996;28;20196;-64
2023/08/12 14:35:35;;;;;;;2.53;2.33;;;;;;;;;;6157500;28;20201;-64
2023/08/12 14:38:36;;;;;;;2.93;2.60;;;;;;;;;;6162463;28;20255;-64
2023/08/12 14:41:37;;;;;;;2.47;2.27;;;;;;;;;;6162565;28;20215;-64
2023/08/12 14:44:38;;;;;;;2.50;2.30;;;;;;;;;;6173325;28;20192;-64
2023/08/12 14:47:39;;;;;;;2.27;2.07;;;;;;;;;;6176057;28;20196;-64
2023/08/12 14:50:41;;;;;;;2.80;2.50;;;;;;;;;;6178330;28;20211;-64
2023/08/12 14:53:42;;;;;;;2.53;2.30;;;;;;;;;;6170110;28;20216;-64
2023/08/12 14:56:44;;;;;;;4.27;2.63;;;;;;;;;;6162160;28;20207;-65
2023/08/12 14:59:50;;;;;;;4.10;2.50;;;;;;;;;;6177632;28;20192;-65
2023/08/12 15:02:51;;;;;;;2.80;2.60;;;;;;;;;;6162286;28;20201;-65
2023/08/12 15:06:05;;;;;;;2.87;2.67;;;;;;;;;;6174292;28;20236;-65
2023/08/12 15:09:10;;;;;;;2.80;2.40;;;;;;;;;;6176721;28;20192;-64
2023/08/12 15:12:11;;;;;;;3.33;2.40;;;;;;;;;;6176058;28;20212;-64
2023/08/12 15:15:12;;;;;;;4.30;2.50;;;;;;;;;;6172294;28;20199;-64
2023/08/12 15:18:13;;;;;;;2.70;2.50;;;;;;;;;;6153603;28;20188;-64
2023/08/12 15:21:15;;;;;;;3.33;2.60;;;;;;;;;;6167236;28;20284;-65
2023/08/12 15:24:17;;;;;;;3.53;2.80;;;;;;;;;;6155477;28;20221;-64
2023/08/12 15:27:18;;;;;;;2.83;2.63;;;;;;;;;;6177200;28;20192;-64
2023/08/12 15:30:19;;;;;;;2.83;2.23;;;;;;;;;;6191144;28;20196;-64
2023/08/12 15:33:20;;;;;;;3.77;2.37;;;;;;;;;;6160744;28;20196;-64
2023/08/12 15:36:21;;;;;;;3.07;2.50;;;;;;;;;;6157889;28;20192;-65
2023/08/12 15:39:23;;;;;;;3.07;2.77;;;;;;;;;;6175902;28;20196;-65
2023/08/12 15:42:24;;;;;;;3.07;2.80;;;;;;;;;;6163433;28;20224;-64
2023/08/12 15:45:25;;;;;;;3.97;2.70;;;;;;;;;;6162039;28;20196;-64
2023/08/12 15:48:26;;;;;;;2.70;2.40;;;;;;;;;;6160719;28;20208;-65
2023/08/12 15:51:26;;;;;;;2.60;2.40;;;29.90;49.50;;;;;;6175910;28;20279;-65
2023/08/12 15:54:27;;;;;;;3.30;2.50;;;29.70;48.90;;;;;;6160632;28;20233;-65
2023/08/12 15:57:28;;;;;;;3.03;2.73;;;29.70;49.20;;;;;;6152851;28;20300;-65
2023/08/12 16:00:28;;;;;;;2.80;2.60;;;29.50;51.00;;;;;;6176159;28;20222;-65
2023/08/12 16:03:29;;;;;;;2.63;2.43;;;29.40;52.30;;;;;;6153177;28;20272;-65
2023/08/12 16:06:30;;;;;;;2.63;2.43;;;29.30;51.20;;;;;;6159559;28;20244;-65
2023/08/12 16:09:30;;;;;;;2.60;2.40;;;29.30;51.30;;;;;;6163892;28;20188;-64
2023/08/12 16:12:31;;;;;;;3.00;2.60;;;29.10;49.20;;;;;;6144254;28;20286;-65
2023/08/12 16:15:32;;;;;;;2.63;2.43;;;29.10;50.90;;;;;;6175718;28;20192;-65
2023/08/12 16:18:33;;;;;;;3.03;2.80;;;29.00;52.00;;;;;;6160675;28;20191;-65
2023/08/12 16:21:34;;;;;;;2.83;2.63;;;24.00;50.00;;;;;;6168172;28;20220;-65
2023/08/12 16:24:34;;;;;;;2.93;2.73;;;28.90;53.00;;;;;;6159206;28;20288;-65
2023/08/12 16:27:35;;;;;;;3.03;2.70;;;28.70;52.70;;;;;;6136486;28;20188;-65
2023/08/12 16:30:36;;;;;;;3.37;2.50;;;;;;;;;;6175442;28;20192;-65
2023/08/12 16:33:37;;;;;;;2.83;2.63;;;;;;;;;;6175925;28;20270;-65
2023/08/12 16:36:38;;;;;;;3.00;2.70;;;;;;;;;;6159268;28;20223;-65
2023/08/12 16:39:39;;;;;;;2.90;2.57;;;;;;;;;;6160094;28;20201;-65
2023/08/12 16:42:40;;;;;;;2.50;2.30;;;28.30;54.30;;;;;;6159175;28;20243;-65
2023/08/12 16:45:41;;;;;;;2.67;2.47;;;28.10;54.30;;;;;;6160578;28;20193;-65
2023/08/12 16:48:41;;;;;;;2.70;2.50;;;28.00;55.70;;;;;;6161720;28;20202;-65
2023/08/12 16:51:42;;;;;;;2.60;2.40;;;;;;;;;;6168180;28;20202;-65
2023/08/12 16:54:43;;;;;;;2.47;2.27;;;27.90;54.70;;;;;;6160031;28;20192;-65
2023/08/12 16:57:44;;;;;;;4.20;2.97;;;;;;;;;;6144495;28;20248;-65
2023/08/12 17:00:46;;;;;;;2.80;2.60;;;;;;;;;;6159064;28;20216;-65
2023/08/12 17:03:47;;;;;;;3.00;2.80;;;;;;;;;;6159125;28;20283;-65
2023/08/12 17:06:48;;;;;;;4.17;2.60;;;;;;;;;;6175132;28;20248;-65
2023/08/12 17:09:49;;;;;;;3.10;2.80;;;;;;;;;;6158930;28;20197;-65
2023/08/12 17:12:50;;;;;;;3.13;2.83;;;;;;;;;;6156631;28;20226;-65
2023/08/12 17:15:51;;;;;;;2.50;2.30;;;;;;;;;;6175129;28;20196;-65
2023/08/12 17:18:52;;;;;;;2.87;2.67;;;;;;;;;;6168071;28;20232;-65
2023/08/12 17:21:53;;;;;;;4.80;2.73;;;;;;;;;;6163676;28;20218;-65
2023/08/12 17:24:54;;;;;;;3.00;2.70;;;;;;;;;;6163658;28;20334;-65
2023/08/12 17:27:55;;;;;;;3.20;2.70;;;;;;;;;;6163914;28;20193;-65
2023/08/12 17:30:56;;;;;;;2.70;2.50;;;;;;;;;;6178888;28;20226;-65
2023/08/12 17:33:57;;;;;;;3.20;2.90;;;;;;;;;;6184203;28;20279;-65
2023/08/12 17:36:58;;;;;;;2.90;2.70;;;;;;;;;;6176172;28;20209;-65
2023/08/12 17:39:59;;;;;;;3.03;2.63;;;;;;;;;;6163564;28;20208;-65
2023/08/12 17:43:01;;;;;;;2.83;2.63;;;;;;;;;;6163243;28;20192;-65
2023/08/12 17:46:02;;;;;;;3.30;2.80;;;;;;;;;;6179863;28;20193;-66
2023/08/12 17:49:04;;;;;;;3.43;3.13;;;;;;;;;;6153205;28;20231;-66
2023/08/12 17:52:05;;;;;;;3.73;2.97;;;;;;;;;;6179092;28;20219;-65
2023/08/12 17:55:06;;;;;;;3.17;2.87;;;;;;;;;;6158092;28;20272;-65